home | artists | genres | years | calendar | countries | playbacks | last played

Records of minimal techno

overviewpopular tracks

Artist Record Year Power Played Added Last Played
Radiohead Kid A 2000 15.0 95 2000-08-05 2019-01-09
Radiohead Amnesiac 2001 8.0 62 2001-06-05 2019-11-03
Fonica Ripple 2002 0.0 0 2003-10-01 Never
Murcof Martes 2002 0.0 0 2003-11-02 Never
Bernhard Fleischmann Welcome Tourist 2003 7.0 132 2005-09-27 2013-08-05
Susumu Yokota Magic Thread 2000 0.0 0 2005-10-01 Never
Norken Our Memories Of Winter 2005 0.0 1 2005-10-20 2005-10-20
Hofuku Sochi Min Tek 2005 4.2 41 2005-10-25 2012-10-05
Jan Jelinek Kosmischer Pitch 2005 0.1 9 2005-12-04 2008-09-20
Marc Leclair Musique Pour 3 Femmes Enceinte 2005 0.2 42 2005-12-04 2008-10-07
TBA Annulé 2005 2.0 27 2005-12-04 2009-04-15
Miwon Pale Glitter 2005 1.0 14 2006-05-29 2014-04-02
Danieto Contemplacion De La Vida Inerte 2006 1.0 13 2006-06-07 2009-04-16
Trentemøller The Last Resort 2006 2.0 15 2006-10-04 2011-12-29
Andy Stott Merciless 2006 1.0 11 2006-11-24 2008-06-29
The Field Sound Of Light 2008 0.0 0 2008-03-24 Never
Drøn Homeworld 2002 0.0 0 2008-04-29 Never
Gui Boratto Chromophobia 2007 9.0 105 2008-07-25 2018-01-24
Nôze Songs On The Rocks 2008 2.0 13 2008-10-24 2008-12-14
Yagya Rigning 2009 0.0 0 2009-03-05 Never
Gui Boratto Take My Breath Away 2009 4.0 12 2009-03-18 2011-04-09
Paul Kalkbrenner Zeit 2001 0.2 2 2009-05-09 2009-05-07
Vector Lovers Ping-Pong 2008 0.0 1 2009-05-09 2009-03-17
Jeff Mills The Good Robot 2009 1.0 1 2009-08-05 2009-08-21
Modul Isol 2004 0.0 0 2009-08-05 Never
Monolake Atlas - Titan 2009 0.0 1 2009-08-05 2009-10-11
Exercise One In Cars We Rust 2009 0.1 0 2009-09-01 Never
Gui Boratto Arquipélago 2005 0.0 0 2009-11-01 Never
Gui Boratto I Feel Love 2009 1.0 2 2009-11-01 2012-12-09
Modul Over The Dew 2009 0.0 0 2009-11-01 Never
Sleeparchive Elephant Island 2004 0.0 0 2009-11-01 Never
The Village Orchestra The Dark Is Rising 2009 0.0 0 2009-11-01 Never
Nikakoi Selected 2009 8.0 30 2009-12-19 2019-07-08
Sven Weisemann Shove EP 2009 1.0 4 2009-12-19 2010-03-05
Tadeo Series 01 2009 1.0 6 2009-12-19 2010-03-05
Cio D'or Die Faser 2009 0.0 1 2010-01-12 2009-12-30
Jeff Mills Sleeper Wakes 2009 0.0 2 2010-01-12 2009-12-28
Fedaden Broader 2009 4.0 4 2010-02-27 2011-09-28
Gui Boratto Notations 2009 1.0 1 2010-02-27 2012-09-26
various Electronica 2.0 2009 0.0 0 2010-02-27 Never
Gui Boratto Azzurra 2010 2.0 3 2010-04-12 2012-11-27
Holger Flinsch Regayov 2003 1.1 1 2010-05-14 2012-09-06
Lusine Lucky Numbers. The Ghostly Internationals EPs 2010 1.0 2 2010-05-14 2012-11-21
Kevin Scherschel 22.22 2010 0.1 1 2010-07-28 2010-07-28
Modul Quarterlife Recycle Bin 2010 3.0 3 2010-08-02 2012-10-25
Karsten Pflum Slaphead Faun 2010 1.0 1 2010-08-19 2012-07-14
Plantae Freundlich 2010 0.0 0 2010-08-24 Never
Aswefall Fun Is Dead 2010 1.1 1 2010-09-30 2011-02-03
Shlomi Aber & Itamar Sagi Blonda 2007 1.0 1 2010-10-12 2012-09-26
Trentemøller Into The Great Wide Yonder 2010 1.0 1 2010-10-14 2010-10-19
Fedaden Fedaden 2005 0.0 1 2010-11-09 2010-11-09
Miss Kittin All You Need 2011 0.0 0 2011-02-07 Never
Olympic Smoker Water 2009 0.0 0 2011-02-07 Never
Blamstrain Keeping Up Appearances 2011 0.1 0 2011-03-24 Never
Robot Science Good Luck 2011 1.0 4 2011-03-28 2011-04-28
Lefu Metamorphosis 2011 5.0 7 2011-06-06 2015-05-12
Lemongrass Sans Souci 2011 0.0 0 2011-06-06 Never
Depeche Mode Behind The Wheel 2011 2011 0.0 0 2011-09-08 Never
Gui Boratto The Drill 2011 0.0 0 2011-09-12 Never
Kelpe Same New Era 2011 0.0 0 2011-09-12 Never
Teddybears No More Michael Jackson 2011 2.0 2 2011-09-16 2011-10-10
ATOM™ Muster 2009 0.0 0 2011-09-28 Never
Gui Boratto III 2011 0.0 0 2011-09-30 Never
Flanger Nuclear Jazz 2007 0.0 0 2011-11-30 Never
Moby Our Slow Conquest Of Space 2011 0.0 0 2011-11-30 Never
OH The Unknown Stuntman 2003 0.0 0 2012-01-09 Never
VCMG EP 1. Spock 2011 0.0 0 2012-01-10 Never
Yello Oh Yeah 2010 2010 0.0 0 2012-01-10 Never
VCMG SSSS 2012 0.0 0 2012-04-26 Never
Slagsmålsklubben The Garage 2012 1.1 13 2012-06-22 2012-11-24
Nathan Fake Iceni Strings 2012 0.0 1 2012-08-02 2012-08-02
Paradis Hémisphère. Je m'ennuie 2012 1.0 4 2012-09-17 2012-10-01
Modul Glorious Failure 2010 0.0 0 2012-10-05 Never
Nathan Fake Steam Days 2012 0.0 2 2012-10-06 2012-10-05
Bodi Bill Next Time 2008 1.0 18 2012-12-04 2012-12-10
Bodi Bill Two in One 2010 2.0 13 2012-12-05 2012-12-13
Boris Blank Avant Garden Volume 3 2012 1.0 7 2012-12-15 2014-11-04
Prins Thomas Prins Thomas II 2012 0.0 0 2012-12-19 Never
Rone Tohu Bohu 2012 4.0 12 2012-12-20 2013-06-10
Simian Mobile Disco A Form Of Change 2012 0.0 0 2012-12-28 Never
Hab Hab 2012 4.0 24 2013-01-08 2013-07-06
Alden Tyrell Rush + Tntus 2012 0.0 0 2013-01-14 Never
Araya Whilst We Try 2010 1.0 4 2013-01-23 2013-03-01
Jean Michel Jarre InFiné by Jean Michel Jarre 2013 1.0 2 2013-01-28 2013-06-02
Depeche Mode Delta Machine 2013 20.1 155 2013-03-18 2021-03-31
Aramaki WSOL 2013 2.0 19 2013-07-19 2013-10-21
Depeche Mode Soothe My Soul 2013 0.0 0 2013-08-19 Never
Kelpe Fourth. The Golden Eagle 2013 2.0 2 2013-11-19 2013-12-17
Krojc Pirx 2012 3.0 26 2013-11-19 2013-12-16
The Black Dog Tranklements 2013 0.0 0 2013-12-24 Never
Gui Boratto Generate 2013 1.0 1 2013-12-30 2014-07-08
Gui Boratto The K2 Chapter 2013 0.0 0 2013-12-30 Never
Kelpe Monte Verità 2013 0.0 0 2013-12-31 Never
Miwon Brother Mole 2004 1.0 2 2014-04-03 2014-05-01
Baths Ocean Death 2014 0.0 0 2014-06-25 Never
Rone Apache 2014 0.0 1 2014-08-22 2014-08-21
The Micronaut Panorama 2014 1.0 2 2014-09-20 2014-10-04
Martin Gore MG 2015 0.0 0 2015-05-20 Never
Applescal For 2015 0.1 4 2015-08-20 2015-12-21
Abakus The Archives Vol 4. Darker Moods 2015 1.0 3 2015-09-11 2015-09-11
Digital Skyline Dark Matter 2016 1.0 3 2016-11-22 2016-11-27
various XOXO 2016 4.0 22 2017-01-09 2017-05-05
BT Artifacture ' Indivisim ' Omega 2016 1.0 0 2017-02-19 Never
Ochre Beyond The Outer Loop 2017 4.0 15 2017-03-19 2017-05-05
Max Cooper World Passing By 2017 0.0 0 2018-01-26 Never
Dean McGinnes, Sean Crossan Life In Motion 2018 7.0 23 2019-06-08 2019-11-17
Mujuice Rytm Moskva 2020 0.0 0 2020-04-11 Never
Kick Out The JAMS! Aulismedia Music Library 2018.02.18 "Space Oddity" © Sergey Mishenev 2003-2021